Terminal Aerodrome Forecast
Issued by NWS Cleveland, OH

Home | Current Version | Previous Version | Text Only | Print | Product List | Glossary Off
Versions: 1 2 3 4 5 6 7 8 9 10 11 12 13 14 15 16 17 18 19

329
FTUS41 KCLE 202330
TAFMFD
TAF
KMFD 202330Z 2100/2124 03006KT P6SM SCT025
      TEMPO 2100/2102 BKN025
     FM210600 05004KT P6SM BKN035 BKN070
     FM212100 10005KT P6SM VCTS SCT025CB OVC045=

USA.gov is the U.S. government's official web portal to all federal, state and local government web resources and services.